Time;durP1;ratioP1;P1;durP2;ratioP2;P2;SDS_P1;SDS_P2;PMS_P1;PMS_P2;Temp;Humidity;BMP_temperature;BMP_pressure;BME280_temperature;BME280_humidity;BME280_pressure;Samples;Min_cycle;Max_cycle;Signal;HPM_P1;HPM_P2
2021/12/01 00:01:18;;;;;;;;;;;26.00;95.90;;;;;;4994303;28;19916;-68
2021/12/01 00:03:45;;;;;;;;;;;26.00;95.90;;;;;;4976807;28;19914;-68
2021/12/01 00:06:12;;;;;;;;;;;25.90;96.00;;;;;;4994241;28;20004;-68
2021/12/01 00:08:38;;;;;;;;;;;25.80;95.90;;;;;;4976758;28;19916;-70
2021/12/01 00:11:05;;;;;;;;;;;25.80;96.20;;;;;;4994045;28;19998;-69
2021/12/01 00:13:33;;;;;;;;;;;25.90;96.30;;;;;;4994117;28;19916;-68
2021/12/01 00:16:00;;;;;;;;;;;26.00;96.30;;;;;;4994215;28;19916;-68
2021/12/01 00:18:26;;;;;;;;;;;26.00;96.00;;;;;;4993994;28;20037;-68
2021/12/01 00:20:53;;;;;;;;;;;26.00;96.10;;;;;;4994181;28;19914;-69
2021/12/01 00:23:20;;;;;;;;;;;26.10;96.10;;;;;;4994217;28;20384;-68
2021/12/01 00:25:46;;;;;;;;;;;26.10;96.00;;;;;;4993896;28;19913;-72
2021/12/01 00:28:14;;;;;;;;;;;26.30;95.40;;;;;;4993868;28;19920;-70
2021/12/01 00:30:41;;;;;;;;;;;26.40;95.40;;;;;;4993576;28;19910;-68
2021/12/01 00:33:14;;;;;;;;;;;26.50;95.40;;;;;;4976178;28;19968;-68
2021/12/01 00:35:41;;;;;;;;;;;26.70;95.60;;;;;;4976310;28;19917;-68
2021/12/01 00:38:08;;;;;;;;;;;26.80;95.40;;;;;;4993537;28;19976;-68
2021/12/01 00:40:34;;;;;;;;;;;26.80;94.90;;;;;;4993787;28;19920;-68
2021/12/01 00:43:01;;;;;;;;;;;26.90;94.90;;;;;;4993741;28;20409;-68
2021/12/01 00:45:29;;;;;;;;;;;26.90;95.00;;;;;;4993763;28;19914;-68
2021/12/01 00:47:55;;;;;;;;;;;26.90;95.20;;;;;;4993792;28;19917;-68
2021/12/01 00:50:23;;;;;;;;;;;26.80;95.20;;;;;;4993694;28;20446;-68
2021/12/01 00:52:51;;;;;;;;;;;26.70;95.40;;;;;;4993613;28;19910;-68
2021/12/01 00:55:17;;;;;;;;;;;26.70;95.30;;;;;;4993681;28;19914;-68
2021/12/01 00:57:44;;;;;;;;;;;26.60;94.80;;;;;;4993555;28;20290;-68
2021/12/01 01:00:11;;;;;;;;;;;27.00;94.90;;;;;;4993555;28;19937;-68
2021/12/01 01:02:38;;;;;;;;;;;27.40;94.80;;;;;;4993617;28;19956;-68
2021/12/01 01:05:05;;;;;;;;;;;27.60;93.50;;;;;;4976176;28;19997;-68
2021/12/01 01:07:32;;;;;;;;;;;27.90;93.40;;;;;;4993597;28;20286;-68
2021/12/01 01:10:05;;;;;;;;;;;28.00;93.30;;;;;;4993563;28;19910;-68
2021/12/01 01:18:08;;;;;;;;;;;28.10;93.10;;;;;;4993465;28;19917;-68
2021/12/01 01:20:35;;;;;;;;;;;28.00;93.10;;;;;;4977100;28;19914;-68
2021/12/01 01:23:01;;;;;;;;;;;27.90;93.10;;;;;;4993399;28;19914;-68
2021/12/01 01:25:28;;;;;;;;;;;27.80;93.10;;;;;;4993401;28;19917;-68
2021/12/01 01:27:55;;;;;;;;;;;27.80;93.10;;;;;;4976181;28;19910;-68
2021/12/01 01:30:21;;;;;;;;;;;27.80;93.30;;;;;;4993329;28;19917;-68
2021/12/01 01:32:48;;;;;;;;;;;27.80;93.50;;;;;;4975862;28;19917;-68
2021/12/01 01:35:15;;;;;;;;;;;27.80;93.50;;;;;;4976109;28;19910;-68
2021/12/01 01:37:42;;;;;;;;;;;27.90;93.00;;;;;;4993098;28;19926;-68
2021/12/01 01:40:09;;;;;;;;;;;27.90;93.10;;;;;;4993225;28;19914;-68
2021/12/01 01:42:35;;;;;;;;;;;27.90;92.70;;;;;;4993246;28;19917;-68
2021/12/01 01:45:02;;;;;;;;;;;28.00;92.90;;;;;;4993219;28;19937;-68
2021/12/01 01:47:29;;;;;;;;;;;28.10;92.60;;;;;;4993161;28;19916;-72
2021/12/01 01:50:12;;;;;;;;;;;28.20;92.50;;;;;;5011598;28;20425;-73
2021/12/01 01:52:39;;;;;;;;;;;28.10;92.60;;;;;;4983968;28;19913;-71
2021/12/01 01:55:06;;;;;;;;;;;28.20;92.80;;;;;;4998741;28;20350;-69
2021/12/01 01:57:33;;;;;;;;;;;28.30;92.30;;;;;;5016091;28;19956;-69
2021/12/01 01:59:59;;;;;;;;;;;28.40;92.40;;;;;;5016178;28;20293;-69
2021/12/01 02:02:26;;;;;;;;;;;28.50;92.50;;;;;;4998816;28;19910;-68
2021/12/01 02:04:56;;;;;;;;;;;28.60;91.70;;;;;;5016339;28;20377;-69
2021/12/01 02:07:22;;;;;;;;;;;28.40;91.60;;;;;;5016103;28;19910;-69
2021/12/01 02:09:49;;;;;;;;;;;28.40;92.20;;;;;;5016028;28;20282;-69
2021/12/01 02:12:16;;;;;;;;;;;28.40;92.60;;;;;;5015992;28;19910;-69
2021/12/01 02:14:42;;;;;;;;;;;28.30;92.60;;;;;;4998533;28;19917;-69
2021/12/01 02:17:09;;;;;;;;;;;28.10;93.00;;;;;;5015756;28;19910;-69
2021/12/01 02:19:39;;;;;;;;;;;28.00;93.10;;;;;;4998169;28;20425;-69
2021/12/01 02:22:05;;;;;;;;;;;27.90;93.10;;;;;;5015883;28;19910;-69
2021/12/01 02:24:32;;;;;;;;;;;27.90;92.90;;;;;;5015696;28;19985;-69
2021/12/01 02:26:59;;;;;;;;;;;27.90;93.00;;;;;;5015738;28;19932;-69
2021/12/01 02:29:26;;;;;;;;;;;28.30;93.60;;;;;;4998033;28;20291;-71
2021/12/01 02:31:53;;;;;;;;;;;28.50;92.90;;;;;;5015810;28;19909;-72
2021/12/01 02:34:21;;;;;;;;;;;28.40;92.60;;;;;;5015751;28;19932;-73
2021/12/01 02:36:48;;;;;;;;;;;28.20;92.70;;;;;;5012273;28;19917;-69
2021/12/01 02:39:16;;;;;;;;;;;27.90;92.90;;;;;;5015667;28;19996;-70
2021/12/01 02:41:43;;;;;;;;;;;27.70;93.20;;;;;;4995738;28;20282;-70
2021/12/01 02:44:12;;;;;;;;;;;27.50;93.80;;;;;;5003601;28;19914;-70
2021/12/01 02:46:39;;;;;;;;;;;27.30;94.10;;;;;;4995811;28;19917;-70
2021/12/01 02:49:06;;;;;;;;;;;27.00;94.20;;;;;;5001402;28;19909;-70
2021/12/01 02:51:36;;;;;;;;;;;26.70;94.50;;;;;;5000935;28;19913;-70
2021/12/01 02:54:03;;;;;;;;;;;26.50;94.80;;;;;;4986670;28;20297;-70
2021/12/01 02:56:30;;;;;;;;;;;26.20;95.30;;;;;;4992683;28;19976;-70
2021/12/01 02:58:58;;;;;;;;;;;26.00;95.50;;;;;;5014393;28;20348;-69
2021/12/01 03:01:24;;;;;;;;;;;26.00;95.50;;;;;;5014655;28;20397;-69
2021/12/01 03:03:51;;;;;;;;;;;25.90;95.60;;;;;;5013459;28;19929;-69
2021/12/01 03:06:19;;;;;;;;;;;25.90;95.40;;;;;;4996524;28;19922;-69
2021/12/01 03:08:45;;;;;;;;;;;25.80;95.50;;;;;;5014681;28;19984;-69
2021/12/01 03:11:12;;;;;;;;;;;25.80;95.50;;;;;;5014361;28;19967;-69
2021/12/01 03:13:39;;;;;;;;;;;25.80;95.60;;;;;;4996854;28;19921;-69
2021/12/01 03:16:06;;;;;;;;;;;25.80;95.60;;;;;;4996998;28;20051;-69
2021/12/01 03:18:33;;;;;;;;;;;25.90;95.80;;;;;;5014041;28;19913;-69
2021/12/01 03:21:00;;;;;;;;;;;25.80;95.60;;;;;;4996708;28;19917;-69
2021/12/01 03:23:26;;;;;;;;;;;25.90;95.50;;;;;;5014395;28;19920;-69
2021/12/01 03:25:53;;;;;;;;;;;25.90;95.30;;;;;;5013716;28;19910;-70
2021/12/01 03:28:20;;;;;;;;;;;26.00;95.50;;;;;;5014290;28;19913;-69
2021/12/01 03:30:47;;;;;;;;;;;26.10;95.10;;;;;;4996377;28;19936;-70
2021/12/01 03:33:15;;;;;;;;;;;26.20;95.60;;;;;;5013923;28;20321;-68
2021/12/01 03:35:42;;;;;;;;;;;26.50;95.90;;;;;;4996670;28;19968;-69
2021/12/01 03:38:09;;;;;;;;;;;26.60;95.60;;;;;;4986404;28;19922;-71
2021/12/01 03:40:35;;;;;;;;;;;26.70;95.40;;;;;;5028320;28;19921;-69
2021/12/01 03:43:02;;;;;;;;;;;26.80;94.80;;;;;;5028728;28;19947;-70
2021/12/01 03:45:29;;;;;;;;;;;27.00;95.10;;;;;;5016186;28;19910;-69
2021/12/01 03:47:56;;;;;;;;;;;27.10;94.90;;;;;;5014154;28;19909;-69
2021/12/01 03:50:22;;;;;;;;;;;27.10;94.80;;;;;;5012516;28;20009;-69
2021/12/01 03:52:49;;;;;;;;;;;27.10;94.30;;;;;;5013962;28;19935;-69
2021/12/01 03:55:16;;;;;;;;;;;27.00;94.10;;;;;;5014084;28;19935;-69
2021/12/01 03:57:42;;;;;;;;;;;27.10;94.40;;;;;;5013939;28;19917;-69
2021/12/01 04:00:10;;;;;;;;;;;27.20;94.20;;;;;;5013466;28;19917;-69
2021/12/01 04:02:37;;;;;;;;;;;27.40;93.80;;;;;;5013967;28;20395;-69
2021/12/01 04:05:03;;;;;;;;;;;27.40;93.60;;;;;;5013389;28;20008;-69
2021/12/01 04:07:30;;;;;;;;;;;27.50;93.90;;;;;;5013885;28;19909;-69
2021/12/01 04:09:57;;;;;;;;;;;27.60;94.20;;;;;;5013712;28;19910;-69
2021/12/01 04:12:23;;;;;;;;;;;27.60;93.70;;;;;;5012528;28;19921;-72
2021/12/01 04:14:50;;;;;;;;;;;27.60;93.20;;;;;;5012121;28;20359;-73
2021/12/01 04:17:17;;;;;;;;;;;27.70;93.30;;;;;;5013582;28;19921;-69
2021/12/01 04:19:45;;;;;;;;;;;27.70;93.00;;;;;;5012939;28;19914;-69
2021/12/01 04:22:12;;;;;;;;;;;27.70;92.70;;;;;;4995500;28;19921;-69
2021/12/01 04:24:38;;;;;;;;;;;27.60;92.90;;;;;;5013164;28;20047;-70
2021/12/01 04:27:05;;;;;;;;;;;27.50;93.10;;;;;;5012315;28;19917;-70
2021/12/01 04:29:32;;;;;;;;;;;27.50;93.20;;;;;;5012064;28;20319;-67
2021/12/01 04:31:59;;;;;;;;;;;27.40;92.80;;;;;;5011706;28;20397;-67
2021/12/01 04:34:25;;;;;;;;;;;27.30;93.30;;;;;;5011855;28;20321;-67
2021/12/01 04:36:52;;;;;;;;;;;27.30;93.10;;;;;;5012538;28;20485;-67
2021/12/01 04:39:19;;;;;;;;;;;27.20;93.20;;;;;;5012848;28;19925;-67
2021/12/01 04:41:56;;;;;;;;;;;27.20;93.00;;;;;;5013388;28;20314;-67
2021/12/01 04:44:24;;;;;;;;;;;27.20;93.50;;;;;;5011219;28;19917;-67
2021/12/01 04:46:55;;;;;;;;;;;27.20;93.30;;;;;;5013563;28;19919;-69
2021/12/01 04:49:22;;;;;;;;;;;27.20;93.40;;;;;;4996377;28;19910;-67
2021/12/01 04:51:52;;;;;;;;;;;27.20;93.50;;;;;;5013292;28;20324;-67
2021/12/01 04:54:19;;;;;;;;;;;27.20;93.30;;;;;;5012798;28;19964;-67
2021/12/01 04:56:46;;;;;;;;;;;27.20;93.40;;;;;;5012373;28;19925;-67
2021/12/01 04:59:13;;;;;;;;;;;27.20;93.30;;;;;;5012555;28;19956;-67
2021/12/01 05:01:40;;;;;;;;;;;27.20;93.20;;;;;;5012080;28;20021;-67
2021/12/01 05:04:08;;;;;;;;;;;27.20;93.10;;;;;;5012743;28;19913;-67
2021/12/01 05:06:35;;;;;;;;;;;27.20;92.90;;;;;;5012868;28;19963;-67
2021/12/01 05:09:01;;;;;;;;;;;27.20;93.50;;;;;;5011411;28;19914;-67
2021/12/01 05:11:28;;;;;;;;;;;27.20;92.90;;;;;;5012687;28;20149;-68
2021/12/01 05:13:55;;;;;;;;;;;27.20;92.70;;;;;;5012566;28;19917;-68
2021/12/01 05:16:21;;;;;;;;;;;27.20;92.60;;;;;;5012349;28;19921;-68
2021/12/01 05:18:48;;;;;;;;;;;27.20;92.30;;;;;;4988317;28;19913;-68
2021/12/01 05:21:15;;;;;;;;;;;27.30;92.50;;;;;;4998921;28;19913;-69
2021/12/01 05:23:41;;;;;;;;;;;27.40;92.50;;;;;;5009053;28;20273;-68
2021/12/01 05:26:10;;;;;;;;;;;27.50;92.70;;;;;;5015446;28;20404;-68
2021/12/01 05:28:37;;;;;;;;;;;27.60;92.20;;;;;;5016665;28;19909;-68
2021/12/01 05:31:04;;;;;;;;;;;27.80;92.00;;;;;;5016758;28;19910;-68
2021/12/01 05:33:31;;;;;;;;;;;28.20;92.00;;;;;;4999092;28;19910;-68
2021/12/01 05:35:57;;;;;;;;;;;28.20;91.80;;;;;;5002288;28;19910;-68
2021/12/01 05:38:24;;;;;;;;;;;28.40;91.50;;;;;;4996768;28;20420;-68
2021/12/01 05:40:50;;;;;;;;;;;28.70;91.60;;;;;;4996799;28;19913;-68
2021/12/01 05:43:17;;;;;;;;;;;29.10;90.90;;;;;;4996908;28;20306;-68
2021/12/01 05:45:44;;;;;;;;;;;29.50;90.50;;;;;;4982742;28;19914;-67
2021/12/01 05:48:11;;;;;;;;;;;29.60;90.30;;;;;;5005177;28;19917;-68
2021/12/01 05:50:38;;;;;;;;;;;29.80;90.20;;;;;;4979456;28;19921;-67
2021/12/01 05:53:05;;;;;;;;;;;30.20;90.10;;;;;;4979444;28;19918;-67
2021/12/01 05:55:31;;;;;;;;;;;30.40;88.40;;;;;;4996729;28;19949;-72
2021/12/01 05:57:58;;;;;;;;;;;30.70;87.90;;;;;;4996639;28;19921;-67
2021/12/01 06:00:25;;;;;;;;;;;30.60;87.90;;;;;;4996635;28;19914;-67
2021/12/01 06:02:52;;;;;;;;;;;30.50;87.40;;;;;;4979060;28;20367;-67
2021/12/01 06:05:19;;;;;;;;;;;30.30;87.40;;;;;;4996518;28;19910;-67
2021/12/01 06:07:46;;;;;;;;;;;30.00;87.60;;;;;;4996700;28;19909;-67
2021/12/01 06:10:13;;;;;;;;;;;29.70;87.80;;;;;;4996501;28;20290;-67
2021/12/01 06:12:40;;;;;;;;;;;29.40;88.40;;;;;;5012088;28;19916;-67
2021/12/01 06:15:11;;;;;;;;;;;29.10;88.60;;;;;;5015928;28;19913;-68
2021/12/01 06:17:37;;;;;;;;;;;28.80;89.20;;;;;;5015843;28;19909;-68
2021/12/01 06:20:05;;;;;;;;;;;28.60;89.00;;;;;;5015647;28;19988;-68
2021/12/01 06:22:31;;;;;;;;;;;28.50;88.90;;;;;;5015812;28;19964;-68
2021/12/01 06:24:58;;;;;;;;;;;28.50;88.80;;;;;;5015556;28;19924;-68
2021/12/01 06:27:25;;;;;;;;;;;28.30;89.70;;;;;;5015601;28;19988;-68
2021/12/01 06:29:52;;;;;;;;;;;28.10;89.60;;;;;;5015657;28;19932;-68
2021/12/01 06:32:19;;;;;;;;;;;27.90;89.30;;;;;;5015526;28;19920;-71
2021/12/01 06:34:46;;;;;;;;;;;27.80;90.10;;;;;;5014660;28;19952;-70
2021/12/01 06:37:15;;;;;;;;;;;27.80;89.80;;;;;;5001405;28;19944;-70
2021/12/01 06:39:41;;;;;;;;;;;27.70;90.20;;;;;;5035247;28;19920;-73
2021/12/01 06:42:08;;;;;;;;;;;27.70;90.20;;;;;;5034941;28;19952;-70
2021/12/01 06:44:35;;;;;;;;;;;27.60;90.50;;;;;;5035073;28;19909;-70
2021/12/01 06:47:02;;;;;;;;;;;27.40;90.20;;;;;;5034900;28;19987;-70
2021/12/01 06:49:29;;;;;;;;;;;27.20;90.20;;;;;;5035154;28;19909;-70
2021/12/01 06:51:56;;;;;;;;;;;27.00;90.40;;;;;;5030560;28;19913;-70
2021/12/01 06:54:22;;;;;;;;;;;27.00;90.50;;;;;;5024338;28;19910;-69
2021/12/01 06:56:50;;;;;;;;;;;26.80;90.90;;;;;;5022744;28;20014;-70
2021/12/01 06:59:19;;;;;;;;;;;26.70;90.90;;;;;;5032378;28;19913;-69
2021/12/01 07:01:48;;;;;;;;;;;26.70;91.10;;;;;;5015081;28;19920;-69
2021/12/01 07:04:15;;;;;;;;;;;26.60;91.00;;;;;;5014771;28;19917;-69
2021/12/01 07:06:42;;;;;;;;;;;26.60;91.20;;;;;;4997549;28;19916;-69
2021/12/01 07:09:11;;;;;;;;;;;26.50;91.40;;;;;;5014922;28;19949;-69
2021/12/01 07:11:38;;;;;;;;;;;26.50;91.20;;;;;;5015390;28;19914;-69
2021/12/01 07:14:04;;;;;;;;;;;26.40;91.50;;;;;;5014822;28;20369;-69
2021/12/01 07:16:31;;;;;;;;;;;26.30;91.40;;;;;;4997463;28;20384;-71
2021/12/01 07:18:58;;;;;;;;;;;26.20;91.60;;;;;;5014700;28;20003;-71
2021/12/01 07:21:25;;;;;;;;;;;26.20;92.00;;;;;;4997240;28;19919;-70
2021/12/01 07:23:52;;;;;;;;;;;26.10;92.10;;;;;;5014763;28;19949;-71
2021/12/01 07:26:18;;;;;;;;;;;26.00;92.20;;;;;;5014654;28;20370;-72
2021/12/01 07:28:45;;;;;;;;;;;25.90;92.40;;;;;;5014527;28;20005;-71
2021/12/01 07:31:12;;;;;;;;;;;25.80;92.50;;;;;;5014544;28;19944;-70
2021/12/01 07:33:39;;;;;;;;;;;25.80;92.60;;;;;;5014464;28;19921;-71
2021/12/01 07:36:05;;;;;;;;;;;25.70;92.70;;;;;;5014500;28;20389;-70
2021/12/01 07:38:32;;;;;;;;;;;25.60;92.80;;;;;;5013870;28;20008;-71
2021/12/01 07:40:59;;;;;;;;;;;25.50;93.00;;;;;;5016551;28;20354;-71
2021/12/01 07:43:26;;;;;;;;;;;25.40;93.20;;;;;;5015424;28;19920;-71
2021/12/01 07:45:53;;;;;;;;;;;25.30;93.40;;;;;;5032836;28;19909;-71
2021/12/01 07:48:19;;;;;;;;;;;25.30;93.60;;;;;;5033781;28;19913;-71
2021/12/01 07:50:46;;;;;;;;;;;25.20;93.80;;;;;;5033654;28;19916;-74
2021/12/01 07:53:13;;;;;;;;;;;25.10;93.90;;;;;;5018116;28;20332;-71
2021/12/01 07:55:40;;;;;;;;;;;25.10;94.00;;;;;;5034893;28;19962;-70
2021/12/01 07:58:06;;;;;;;;;;;25.00;94.20;;;;;;5031899;28;20369;-71
2021/12/01 08:00:33;;;;;;;;;;;24.90;94.30;;;;;;5032148;28;19918;-70
2021/12/01 08:03:00;;;;;;;;;;;24.90;94.50;;;;;;5032575;28;19921;-70
2021/12/01 08:05:27;;;;;;;;;;;24.80;94.60;;;;;;5033056;28;20431;-70
2021/12/01 08:07:55;;;;;;;;;;;24.70;94.70;;;;;;5032239;28;19924;-71
2021/12/01 08:10:22;;;;;;;;;;;24.60;94.90;;;;;;5033296;28;20273;-71
2021/12/01 08:12:49;;;;;;;;;;;24.50;94.90;;;;;;5032916;28;19919;-69
2021/12/01 08:15:15;;;;;;;;;;;24.50;95.10;;;;;;5033343;28;19948;-71
2021/12/01 08:17:42;;;;;;;;;;;24.40;95.20;;;;;;5032794;28;20396;-69
2021/12/01 08:20:09;;;;;;;;;;;24.30;95.40;;;;;;5015473;28;19961;-70
2021/12/01 08:22:36;;;;;;;;;;;24.30;95.40;;;;;;5032556;28;20094;-69
2021/12/01 08:25:04;;;;;;;;;;;24.20;95.70;;;;;;5032390;28;19921;-68
2021/12/01 08:27:31;;;;;;;;;;;24.20;95.60;;;;;;5033114;28;19949;-68
2021/12/01 08:29:57;;;;;;;;;;;24.20;95.80;;;;;;5032800;28;19915;-67
2021/12/01 08:32:24;;;;;;;;;;;24.20;95.70;;;;;;5032322;28;19914;-69
2021/12/01 08:34:51;;;;;;;;;;;24.10;95.70;;;;;;5032737;28;19920;-68
2021/12/01 08:37:18;;;;;;;;;;;24.10;95.50;;;;;;5032087;28;19961;-70
2021/12/01 08:39:48;;;;;;;;;;;24.00;95.50;;;;;;5033178;28;19936;-70
2021/12/01 08:42:15;;;;;;;;;;;24.00;95.70;;;;;;5014731;28;19955;-70
2021/12/01 08:44:47;;;;;;;;;;;24.00;95.80;;;;;;5032243;28;19958;-70
2021/12/01 08:47:15;;;;;;;;;;;23.90;95.80;;;;;;5032813;28;19934;-70
2021/12/01 08:49:42;;;;;;;;;;;23.90;95.80;;;;;;5014802;28;19932;-70
2021/12/01 08:52:08;;;;;;;;;;;23.80;95.80;;;;;;5014536;28;19913;-71
2021/12/01 08:54:35;;;;;;;;;;;23.80;96.00;;;;;;5032792;28;20372;-69
2021/12/01 08:57:02;;;;;;;;;;;23.70;96.10;;;;;;5034418;28;19925;-71
2021/12/01 08:59:29;;;;;;;;;;;23.70;96.30;;;;;;5036884;28;19921;-70
2021/12/01 09:01:56;;;;;;;;;;;23.60;96.50;;;;;;5036371;28;19959;-70
2021/12/01 09:04:22;;;;;;;;;;;23.50;96.40;;;;;;5019180;28;19916;-71
2021/12/01 09:06:49;;;;;;;;;;;23.40;96.50;;;;;;5037036;28;19920;-70
2021/12/01 09:09:19;;;;;;;;;;;23.30;96.60;;;;;;5036785;28;19932;-70
2021/12/01 09:11:49;;;;;;;;;;;23.30;96.70;;;;;;5035802;28;20023;-70
2021/12/01 09:14:16;;;;;;;;;;;23.20;96.90;;;;;;5035935;28;19909;-70
2021/12/01 09:16:43;;;;;;;;;;;23.20;96.80;;;;;;5036555;28;20366;-70
2021/12/01 09:19:10;;;;;;;;;;;23.10;97.20;;;;;;5036671;28;20493;-70
2021/12/01 09:21:37;;;;;;;;;;;23.00;97.10;;;;;;5036368;28;19975;-70
2021/12/01 09:24:04;;;;;;;;;;;23.00;97.10;;;;;;5035786;28;19921;-68
2021/12/01 09:26:31;;;;;;;;;;;22.90;97.20;;;;;;5034664;28;19913;-73
2021/12/01 09:28:57;;;;;;;;;;;22.90;97.40;;;;;;5036391;28;20015;-71
2021/12/01 09:31:24;;;;;;;;;;;22.80;97.60;;;;;;5036325;28;20019;-70
2021/12/01 09:33:51;;;;;;;;;;;22.70;97.70;;;;;;5036391;28;19951;-69
2021/12/01 09:36:18;;;;;;;;;;;22.70;98.00;;;;;;5035131;28;19920;-69
2021/12/01 09:38:44;;;;;;;;;;;22.60;98.10;;;;;;5035468;28;19929;-69
2021/12/01 09:41:11;;;;;;;;;;;22.50;98.20;;;;;;5036494;28;19914;-70
2021/12/01 09:43:38;;;;;;;;;;;22.50;98.30;;;;;;5036356;28;19955;-70
2021/12/01 09:46:05;;;;;;;;;;;22.40;98.40;;;;;;5035344;28;19943;-70
2021/12/01 09:48:32;;;;;;;;;;;22.40;98.70;;;;;;5036076;28;19966;-70
2021/12/01 09:50:59;;;;;;;;;;;22.30;98.80;;;;;;5035735;28;19975;-70
2021/12/01 09:53:26;;;;;;;;;;;22.30;99.00;;;;;;5035816;28;19935;-70
2021/12/01 09:55:53;;;;;;;;;;;22.30;99.20;;;;;;5035672;28;19913;-70
2021/12/01 09:58:22;;;;;;;;;;;22.20;99.30;;;;;;5036037;28;19909;-70
2021/12/01 10:00:50;;;;;;;;;;;22.20;99.50;;;;;;5035664;28;19971;-70
2021/12/01 10:03:16;;;;;;;;;;;22.20;99.70;;;;;;5036165;28;19909;-70
2021/12/01 10:05:59;;;;;;;;;;;22.20;99.80;;;;;;5035810;28;20003;-70
2021/12/01 10:08:27;;;;;;;;;;;22.10;99.90;;;;;;5034684;28;19920;-70
2021/12/01 10:10:54;;;;;;;;;;;22.10;99.90;;;;;;5027783;28;20340;-70
2021/12/01 10:13:43;;;;;;;;;;;22.10;99.90;;;;;;5018121;28;20020;-70
2021/12/01 10:16:11;;;;;;;;;;;22.10;99.90;;;;;;5011860;28;19999;-72
2021/12/01 10:18:39;;;;;;;;;;;22.10;99.90;;;;;;5035178;28;20377;-71
2021/12/01 10:21:10;;;;;;;;;;;22.00;99.90;;;;;;5033416;28;19927;-69
2021/12/01 10:23:37;;;;;;;;;;;22.00;99.90;;;;;;5016521;28;19913;-70
2021/12/01 10:26:11;;;;;;;;;;;22.00;99.90;;;;;;5034133;28;19913;-69
2021/12/01 10:28:42;;;;;;;;;;;22.00;99.90;;;;;;5034136;28;19928;-70
2021/12/01 10:31:08;;;;;;;;;;;21.90;99.90;;;;;;5016874;28;20427;-71
2021/12/01 10:33:35;;;;;;;;;;;21.90;99.90;;;;;;5034425;28;20020;-71
2021/12/01 10:36:03;;;;;;;;;;;21.90;99.90;;;;;;5034055;28;19928;-71
2021/12/01 10:38:32;;;;;;;;;;;21.90;99.90;;;;;;5034541;28;20431;-71
2021/12/01 10:41:07;;;;;;;;;;;21.90;99.90;;;;;;5016488;28;20280;-71
2021/12/01 10:43:44;;;;;;;;;;;21.80;99.90;;;;;;5034919;28;20259;-70
2021/12/01 10:46:11;;;;;;;;;;;21.80;99.90;;;;;;5033749;28;19913;-70
2021/12/01 10:48:40;;;;;;;;;;;21.80;99.90;;;;;;5031731;28;19970;-71
2021/12/01 10:51:09;;;;;;;;;;;21.80;99.90;;;;;;5031438;28;19920;-70
2021/12/01 10:53:35;;;;;;;;;;;21.80;99.90;;;;;;5017600;28;19991;-70
2021/12/01 10:56:04;;;;;;;;;;;21.80;99.90;;;;;;5017188;28;20007;-70
2021/12/01 10:58:34;;;;;;;;;;;21.90;99.90;;;;;;5017184;28;19944;-70
2021/12/01 11:01:03;;;;;;;;;;;21.80;99.90;;;;;;5017336;28;20388;-70
2021/12/01 11:03:32;;;;;;;;;;;21.90;99.90;;;;;;5016443;28;20148;-70
2021/12/01 11:06:09;;;;;;;;;;;21.80;99.90;;;;;;5017181;28;19909;-70
2021/12/01 11:08:38;;;;;;;;;;;21.80;99.90;;;;;;5016579;28;19909;-70
2021/12/01 11:11:11;;;;;;;;;;;21.70;99.90;;;;;;5034807;28;19909;-70
2021/12/01 11:13:39;;;;;;;;;;;21.70;99.90;;;;;;5034854;28;19962;-71
2021/12/01 11:16:06;;;;;;;;;;;21.60;99.90;;;;;;5038502;28;19912;-71
2021/12/01 11:18:34;;;;;;;;;;;21.60;99.90;;;;;;5034564;28;19909;-71
2021/12/01 11:21:11;;;;;;;;;;;21.60;99.90;;;;;;5033589;28;19924;-68
2021/12/01 11:23:39;;;;;;;;;;;21.60;99.90;;;;;;5016021;28;19913;-70
2021/12/01 11:26:07;;;;;;;;;;;21.50;99.90;;;;;;5016300;28;19913;-69
2021/12/01 11:28:41;;;;;;;;;;;21.50;99.90;;;;;;5025622;28;20152;-70
2021/12/01 11:31:09;;;;;;;;;;;21.50;99.90;;;;;;5034444;28;19916;-70
2021/12/01 11:33:36;;;;;;;;;;;21.40;99.90;;;;;;5032514;28;19913;-70
2021/12/01 11:36:07;;;;;;;;;;;21.40;99.90;;;;;;5009275;28;19909;-73
2021/12/01 11:38:35;;;;;;;;;;;21.30;99.90;;;;;;4996342;28;19921;-71
2021/12/01 11:41:01;;;;;;;;;;;21.30;99.90;;;;;;5028897;28;19913;-73
2021/12/01 11:43:29;;;;;;;;;;;21.30;99.90;;;;;;5034093;28;19968;-73
2021/12/01 11:45:56;;;;;;;;;;;21.30;99.90;;;;;;5016647;28;20133;-71
2021/12/01 11:48:27;;;;;;;;;;;21.20;99.90;;;;;;5033985;28;19996;-71
2021/12/01 11:51:12;;;;;;;;;;;21.20;99.90;;;;;;5025137;28;19917;-72
2021/12/01 11:53:40;;;;;;;;;;;21.20;99.90;;;;;;5031971;28;19913;-71
2021/12/01 11:56:20;;;;;;;;;;;21.10;99.90;;;;;;5046472;28;19998;-72
2021/12/01 11:58:48;;;;;;;;;;;21.10;99.90;;;;;;5041762;28;19916;-72
2021/12/01 12:01:21;;;;;;;;;;;21.00;99.90;;;;;;5033527;28;19913;-71
2021/12/01 12:03:54;;;;;;;;;;;21.00;99.90;;;;;;5016004;28;19948;-72
2021/12/01 12:06:21;;;;;;;;;;;20.90;99.90;;;;;;5033744;28;19944;-71
2021/12/01 12:09:08;;;;;;;;;;;20.90;99.90;;;;;;5033366;28;20006;-68
2021/12/01 12:11:38;;;;;;;;;;;20.90;99.90;;;;;;5023888;28;20011;-71
2021/12/01 12:14:06;;;;;;;;;;;20.80;99.90;;;;;;5022424;28;19914;-71
2021/12/01 12:16:33;;;;;;;;;;;20.80;99.90;;;;;;5024597;28;19909;-71
2021/12/01 12:19:00;;;;;;;;;;;20.70;99.90;;;;;;5004795;28;20004;-71
2021/12/01 12:21:50;;;;;;;;;;;20.70;99.90;;;;;;5019871;28;20511;-71
2021/12/01 12:24:19;;;;;;;;;;;20.60;99.90;;;;;;5020426;28;19913;-71
2021/12/01 12:26:48;;;;;;;;;;;20.60;99.90;;;;;;5020257;28;19919;-71
2021/12/01 12:29:16;;;;;;;;;;;20.60;99.90;;;;;;5023970;28;19996;-71
2021/12/01 12:31:43;;;;;;;;;;;20.50;99.90;;;;;;5021320;28;19913;-71
2021/12/01 12:34:23;;;;;;;;;;;20.50;99.90;;;;;;5005549;28;19909;-71
2021/12/01 12:36:53;;;;;;;;;;;20.50;99.90;;;;;;5005769;28;19921;-70
2021/12/01 12:39:24;;;;;;;;;;;20.40;99.90;;;;;;5022212;28;20152;-70
2021/12/01 12:42:05;;;;;;;;;;;20.40;99.90;;;;;;5005424;28;19920;-71
2021/12/01 12:44:33;;;;;;;;;;;20.30;99.90;;;;;;5032232;28;19917;-70
2021/12/01 12:47:01;;;;;;;;;;;20.30;99.90;;;;;;5031306;28;19916;-70
2021/12/01 12:49:47;;;;;;;;;;;20.30;99.90;;;;;;5031222;28;19909;-71
2021/12/01 12:52:26;;;;;;;;;;;20.20;99.90;;;;;;5033155;28;20250;-71
2021/12/01 12:54:53;;;;;;;;;;;20.20;99.90;;;;;;5033118;28;20055;-71
2021/12/01 12:57:23;;;;;;;;;;;20.10;99.90;;;;;;5031357;28;19916;-71
2021/12/01 12:59:50;;;;;;;;;;;20.10;99.90;;;;;;5033030;28;19916;-71
2021/12/01 13:02:17;;;;;;;;;;;20.00;99.90;;;;;;5031849;28;19919;-70
2021/12/01 13:04:58;;;;;;;;;;;20.00;99.90;;;;;;5033031;28;20279;-70
2021/12/01 13:07:44;;;;;;;;;;;20.00;99.90;;;;;;5033028;28;19909;-70
2021/12/01 13:10:19;;;;;;;;;;;20.00;99.90;;;;;;5032945;28;19916;-70
2021/12/01 13:12:49;;;;;;;;;;;20.00;99.90;;;;;;5032805;28;20251;-71
2021/12/01 13:15:19;;;;;;;;;;;19.90;99.90;;;;;;5032916;28;19910;-70
2021/12/01 13:17:47;;;;;;;;;;;19.90;99.90;;;;;;5031503;28;20449;-70
2021/12/01 13:20:14;;;;;;;;;;;19.90;99.90;;;;;;5031510;28;19940;-70
2021/12/01 13:22:40;;;;;;;;;;;19.90;99.90;;;;;;5032793;28;19916;-71
2021/12/01 13:25:09;;;;;;;;;;;19.80;99.90;;;;;;5032846;28;19909;-71
2021/12/01 13:27:42;;;;;;;;;;;19.80;99.90;;;;;;5032835;28;20340;-70
2021/12/01 13:30:10;;;;;;;;;;;19.80;99.90;;;;;;5032799;28;19944;-70
2021/12/01 13:32:37;;;;;;;;;;;19.80;99.90;;;;;;5032729;28;19915;-70
2021/12/01 13:35:04;;;;;;;;;;;19.70;99.90;;;;;;5032753;28;20346;-70
2021/12/01 13:37:31;;;;;;;;;;;19.70;99.90;;;;;;5032761;28;19979;-70
2021/12/01 13:39:58;;;;;;;;;;;19.70;99.90;;;;;;5032742;28;19909;-70
2021/12/01 13:42:24;;;;;;;;;;;19.60;99.90;;;;;;5032467;28;19920;-70
2021/12/01 13:44:51;;;;;;;;;;;19.60;99.90;;;;;;5018844;28;19909;-70
2021/12/01 13:47:22;;;;;;;;;;;19.50;99.90;;;;;;5036381;28;20271;-70
2021/12/01 13:49:49;;;;;;;;;;;19.50;99.90;;;;;;5036343;28;19913;-71
2021/12/01 13:52:25;;;;;;;;;;;19.50;99.90;;;;;;5036420;28;19909;-70
2021/12/01 13:54:52;;;;;;;;;;;19.50;99.90;;;;;;5036262;28;19909;-71
2021/12/01 13:57:19;;;;;;;;;;;19.50;99.90;;;;;;5036069;28;19919;-71
2021/12/01 13:59:48;;;;;;;;;;;19.50;99.90;;;;;;5034864;28;19959;-70
2021/12/01 14:02:30;;;;;;;;;;;19.50;99.90;;;;;;5018589;28;20332;-71
2021/12/01 14:04:58;;;;;;;;;;;19.40;99.90;;;;;;5036097;28;19917;-70
2021/12/01 14:07:25;;;;;;;;;;;19.40;99.90;;;;;;5036011;28;20018;-70
2021/12/01 14:10:02;;;;;;;;;;;19.30;99.90;;;;;;5035956;28;19992;-70
2021/12/01 14:12:39;;;;;;;;;;;19.30;99.90;;;;;;5034595;28;19917;-71
2021/12/01 14:15:06;;;;;;;;;;;19.30;99.90;;;;;;5035914;28;19910;-70
2021/12/01 14:17:33;;;;;;;;;;;19.30;99.90;;;;;;5035657;28;20301;-70
2021/12/01 14:20:00;;;;;;;;;;;19.20;99.90;;;;;;5035711;28;19998;-70
2021/12/01 14:22:26;;;;;;;;;;;19.20;99.90;;;;;;5035593;28;19913;-70
2021/12/01 14:24:57;;;;;;;;;;;19.20;99.90;;;;;;5034259;28;19921;-70
2021/12/01 14:27:25;;;;;;;;;;;19.10;99.90;;;;;;5035614;28;19910;-70